Time;durP1;ratioP1;P1;durP2;ratioP2;P2;SDS_P1;SDS_P2;PMS_P1;PMS_P2;Temp;Humidity;BMP_temperature;BMP_pressure;BME280_temperature;BME280_humidity;BME280_pressure;Samples;Min_cycle;Max_cycle;Signal;HPM_P1;HPM_P2
2022/03/29 00:02:01;;;;;;;;;;;;;;;7.64;75.17;101683.72;5106774;28;20007;-73
2022/03/29 00:04:27;;;;;;;;;;;;;;;7.60;74.29;101673.25;5106168;28;19930;-73
2022/03/29 00:06:53;;;;;;;;;;;;;;;7.56;71.87;101671.31;5108817;28;19919;-72
2022/03/29 00:09:18;;;;;;;;;;;;;;;7.51;69.92;101673.63;5104220;28;19924;-72
2022/03/29 00:11:44;;;;;;;;;;;;;;;7.48;74.85;101678.59;5109835;28;20008;-73
2022/03/29 00:14:10;;;;;;;;;;;;;;;7.44;75.55;101676.66;5106041;28;19922;-73
2022/03/29 00:16:36;;;;;;;;;;;;;;;7.41;75.25;101672.28;5103739;28;20350;-73
2022/03/29 00:19:02;;;;;;;;;;;;;;;7.36;72.49;101668.59;5110730;28;19965;-73
2022/03/29 00:21:27;;;;;;;;;;;;;;;7.32;73.13;101666.66;5107322;28;20362;-73
2022/03/29 00:23:53;;;;;;;;;;;;;;;7.28;72.76;101664.75;5107263;28;20370;-73
2022/03/29 00:26:18;;;;;;;;;;;;;;;7.24;77.46;101665.38;5104081;28;19954;-73
2022/03/29 00:28:44;;;;;;;;;;;;;;;7.22;77.88;101666.97;5090389;28;20298;-73
2022/03/29 00:31:10;;;;;;;;;;;;;;;7.18;75.99;101662.47;5090668;28;19920;-73
2022/03/29 00:33:35;;;;;;;;;;;;;;;7.15;76.50;101657.19;5104466;28;19973;-73
2022/03/29 00:36:00;;;;;;;;;;;;;;;7.12;75.42;101654.47;5088295;28;19920;-73
2022/03/29 00:38:25;;;;;;;;;;;;;;;7.08;76.71;101652.53;5107329;28;19919;-73
2022/03/29 00:40:51;;;;;;;;;;;;;;;7.05;76.78;101647.28;5106441;28;19954;-73
2022/03/29 00:43:17;;;;;;;;;;;;;;;7.03;78.35;101646.28;5100941;28;20374;-72
2022/03/29 00:45:43;;;;;;;;;;;;;;;6.99;76.78;101641.03;5105158;28;19959;-73
2022/03/29 00:48:09;;;;;;;;;;;;;;;6.96;78.36;101638.28;5106397;28;19949;-73
2022/03/29 00:50:37;;;;;;;;;;;;;;;6.91;75.60;101642.25;5102954;28;20371;-73
2022/03/29 00:53:04;;;;;;;;;;;;;;;6.86;75.22;101633.47;5107178;28;20394;-73
2022/03/29 00:55:30;;;;;;;;;;;;;;;6.82;75.96;101639.22;5104965;28;19986;-72
2022/03/29 00:57:56;;;;;;;;;;;;;;;6.80;76.48;101628.03;5109398;28;20417;-73
2022/03/29 01:00:21;;;;;;;;;;;;;;;6.77;76.96;101627.84;5108528;28;20002;-72
2022/03/29 01:02:47;;;;;;;;;;;;;;;6.74;76.97;101622.56;5108203;28;20003;-72
2022/03/29 01:05:12;;;;;;;;;;;;;;;6.72;78.66;101624.16;5108807;28;19919;-72
2022/03/29 01:07:37;;;;;;;;;;;;;;;6.69;77.73;101613.75;5103039;28;19967;-72
2022/03/29 01:10:04;;;;;;;;;;;;;;;6.68;76.72;101606.91;5105955;28;19961;-72
2022/03/29 01:12:31;;;;;;;;;;;;;;;6.63;76.15;101609.19;5101735;28;20063;-72
2022/03/29 01:14:56;;;;;;;;;;;;;;;6.60;75.48;101609.00;5109597;28;19943;-72
2022/03/29 01:17:40;;;;;;;;;;;;;;;6.60;79.78;101608.13;5109121;28;21608;-72
2022/03/29 01:20:13;;;;;;;;;;;;;;;6.56;78.62;101611.31;5113723;28;19943;-73
2022/03/29 01:22:40;;;;;;;;;;;;;;;6.52;77.21;101610.25;5107244;28;19920;-73
2022/03/29 01:25:06;;;;;;;;;;;;;;;6.51;81.32;101610.19;5112584;28;19919;-73
2022/03/29 01:27:32;;;;;;;;;;;;;;;6.46;79.45;101602.25;5090774;28;19916;-73
2022/03/29 01:29:59;;;;;;;;;;;;;;;6.43;79.24;101600.41;5110978;27;19998;-73
2022/03/29 01:32:28;;;;;;;;;;;;;;;6.43;81.28;101600.41;5111938;28;19927;-73
2022/03/29 01:34:54;;;;;;;;;;;;;;;6.39;81.71;101598.47;5108458;28;19963;-73
2022/03/29 01:37:19;;;;;;;;;;;;;;;6.36;77.66;101597.41;5108943;28;19963;-73
2022/03/29 01:39:44;;;;;;;;;;;;;;;6.32;78.94;101598.94;5106975;28;20301;-73
2022/03/29 01:42:10;;;;;;;;;;;;;;;6.30;79.06;101599.63;5109831;28;20330;-73
2022/03/29 01:44:35;;;;;;;;;;;;;;;6.28;82.16;101599.53;5109814;28;19920;-73
2022/03/29 01:47:00;;;;;;;;;;;;;;;6.26;80.69;101593.47;5112378;28;19925;-73
2022/03/29 01:49:26;;;;;;;;;;;;;;;6.25;80.11;101601.03;5110761;28;19938;-72
2022/03/29 01:51:51;;;;;;;;;;;;;;;6.23;80.81;101590.72;5113400;28;20279;-72
2022/03/29 01:54:16;;;;;;;;;;;;;;;6.20;81.73;101588.00;5112694;28;19931;-73
2022/03/29 01:56:42;;;;;;;;;;;;;;;6.17;78.00;101585.28;5109838;28;20002;-72
2022/03/29 01:59:08;;;;;;;;;;;;;;;6.16;84.11;101575.84;5109383;28;19923;-73
2022/03/29 02:01:40;;;;;;;;;;;;;;;6.17;90.07;101575.94;5109959;28;19916;-73
2022/03/29 02:04:05;;;;;;;;;;;;;;;6.18;90.61;101567.47;5103240;28;19981;-73
2022/03/29 02:06:31;;;;;;;;;;;;;;;6.18;91.20;101566.59;5109345;28;19916;-72
2022/03/29 02:08:59;;;;;;;;;;;;;;;6.17;89.25;101559.72;5110589;28;19943;-73
2022/03/29 02:11:24;;;;;;;;;;;;;;;6.17;87.94;101552.06;5108884;28;20390;-73
2022/03/29 02:13:49;;;;;;;;;;;;;;;6.16;89.54;101558.84;5110915;28;20453;-72
2022/03/29 02:16:15;;;;;;;;;;;;;;;6.16;88.29;101550.31;5111083;28;19946;-72
2022/03/29 02:18:40;;;;;;;;;;;;;;;6.17;87.75;101552.06;5105072;28;20294;-72
2022/03/29 02:21:06;;;;;;;;;;;;;;;6.16;88.38;101555.44;5113367;28;20297;-72
2022/03/29 02:23:31;;;;;;;;;;;;;;;6.14;87.04;101542.56;5111287;28;20004;-72
2022/03/29 02:25:56;;;;;;;;;;;;;;;6.13;92.06;101545.94;5109824;28;20251;-72
2022/03/29 02:28:21;;;;;;;;;;;;;;;6.12;87.64;101550.94;5109610;28;19926;-73
2022/03/29 02:30:47;;;;;;;;;;;;;;;6.10;86.81;101539.75;5111855;28;20271;-72
2022/03/29 02:33:12;;;;;;;;;;;;;;;6.08;84.75;101539.69;5110266;28;20290;-73
2022/03/29 02:35:37;;;;;;;;;;;;;;;6.08;85.88;101539.69;5111098;28;20034;-73
2022/03/29 02:38:02;;;;;;;;;;;;;;;6.08;84.25;101533.69;5108117;28;19955;-73
2022/03/29 02:40:28;;;;;;;;;;;;;;;6.08;84.92;101531.13;5105909;28;20389;-73
2022/03/29 02:42:55;;;;;;;;;;;;;;;6.07;83.53;101535.38;5112464;28;20541;-73
2022/03/29 02:45:21;;;;;;;;;;;;;;;6.08;85.34;101526.03;5107517;28;19962;-73
2022/03/29 02:47:51;;;;;;;;;;;;;;;6.08;84.77;101523.47;5110695;28;19947;-72
2022/03/29 02:50:16;;;;;;;;;;;;;;;6.10;87.80;101521.88;5105025;28;20415;-72
2022/03/29 02:52:42;;;;;;;;;;;;;;;6.10;86.02;101514.22;5110335;28;20413;-72
2022/03/29 02:55:08;;;;;;;;;;;;;;;6.10;90.49;101511.66;5109667;28;19938;-71
2022/03/29 02:57:33;;;;;;;;;;;;;;;6.08;88.07;101513.28;5109332;28;19920;-72
2022/03/29 02:59:58;;;;;;;;;;;;;;;6.08;86.78;101511.59;5109185;28;20397;-72
2022/03/29 03:02:24;;;;;;;;;;;;;;;6.05;85.73;101505.41;5109599;28;19920;-72
2022/03/29 03:04:49;;;;;;;;;;;;;;;6.03;86.54;101499.38;5111259;27;19962;-72
2022/03/29 03:07:14;;;;;;;;;;;;;;;6.02;86.31;101500.16;5106511;28;19928;-72
2022/03/29 03:09:40;;;;;;;;;;;;;;;5.98;81.46;101485.44;5108118;28;19923;-72
2022/03/29 03:12:05;;;;;;;;;;;;;;;5.96;85.74;101498.13;5106728;28;19938;-73
2022/03/29 03:14:30;;;;;;;;;;;;;;;5.92;85.52;101491.09;5108297;28;20357;-73
2022/03/29 03:16:56;;;;;;;;;;;;;;;5.91;85.25;101491.88;5105934;28;20275;-72
2022/03/29 03:19:21;;;;;;;;;;;;;;;5.89;86.61;101490.91;5108037;28;19934;-73
2022/03/29 03:21:47;;;;;;;;;;;;;;;5.87;87.42;101484.81;5109775;27;19923;-73
2022/03/29 03:24:13;;;;;;;;;;;;;;;5.84;92.15;101482.97;5107584;28;20302;-72
2022/03/29 03:26:38;;;;;;;;;;;;;;;5.80;90.42;101475.03;5104629;28;19920;-72
2022/03/29 03:29:04;;;;;;;;;;;;;;;5.76;94.42;101486.75;5109098;28;20370;-72
2022/03/29 03:31:29;;;;;;;;;;;;;;;5.74;90.92;101487.47;5109121;28;19932;-73
2022/03/29 03:33:54;;;;;;;;;;;;;;;5.70;92.46;101483.84;5108719;28;20695;-72
2022/03/29 03:36:19;;;;;;;;;;;;;;;5.67;92.93;101488.78;5104878;28;19943;-73
2022/03/29 03:38:44;;;;;;;;;;;;;;;5.64;91.10;101479.28;5105421;28;19973;-72
2022/03/29 03:41:10;;;;;;;;;;;;;;;5.62;91.02;101485.06;5110045;28;20306;-72
2022/03/29 03:43:35;;;;;;;;;;;;;;;5.60;93.40;101486.66;5104546;28;19969;-72
2022/03/29 03:46:00;;;;;;;;;;;;;;;5.56;93.81;101489.81;5107003;28;19931;-72
2022/03/29 03:48:26;;;;;;;;;;;;;;;5.55;92.49;101477.88;5106644;28;20375;-72
2022/03/29 03:50:51;;;;;;;;;;;;;;;5.51;91.18;101476.78;5107312;28;19931;-72
2022/03/29 03:53:16;;;;;;;;;;;;;;;5.50;90.83;101471.63;5107848;28;19932;-72
2022/03/29 03:55:42;;;;;;;;;;;;;;;5.47;89.76;101472.31;5109667;28;19935;-73
2022/03/29 03:58:07;;;;;;;;;;;;;;;5.46;90.59;101469.66;5092439;28;20003;-73
2022/03/29 04:00:32;;;;;;;;;;;;;;;5.45;89.61;101476.44;5104041;28;19926;-73
2022/03/29 04:02:59;;;;;;;;;;;;;;;5.45;89.94;101470.47;5108327;28;19955;-72
2022/03/29 04:05:26;;;;;;;;;;;;;;;5.45;89.08;101470.47;5106582;28;19919;-72
2022/03/29 04:07:51;;;;;;;;;;;;;;;5.46;89.33;101459.47;5088786;28;19996;-73
2022/03/29 04:10:17;;;;;;;;;;;;;;;5.46;87.23;101462.91;5110002;28;20014;-72
2022/03/29 04:12:42;;;;;;;;;;;;;;;5.46;87.86;101456.91;5108854;28;20263;-73
2022/03/29 04:15:08;;;;;;;;;;;;;;;5.46;89.41;101456.91;5107863;28;19923;-72
2022/03/29 04:17:34;;;;;;;;;;;;;;;5.45;86.96;101450.06;5105501;28;19927;-73
2022/03/29 04:20:01;;;;;;;;;;;;;;;5.45;83.25;101445.84;5107428;28;19916;-72
2022/03/29 04:22:26;;;;;;;;;;;;;;;5.43;85.96;101441.44;5105114;28;19930;-72
2022/03/29 04:24:52;;;;;;;;;;;;;;;5.43;87.37;101441.44;5105083;28;19924;-72
2022/03/29 04:27:17;;;;;;;;;;;;;;;5.42;86.96;101447.34;5105322;28;19922;-72
2022/03/29 04:29:42;;;;;;;;;;;;;;;5.43;88.89;101442.31;5105041;28;20261;-72
2022/03/29 04:32:08;;;;;;;;;;;;;;;5.47;90.65;101440.84;5107020;28;19924;-72
2022/03/29 04:34:34;;;;;;;;;;;;;;;5.48;93.19;101446.03;5099901;28;19923;-72
2022/03/29 04:36:59;;;;;;;;;;;;;;;5.48;93.22;101437.50;5105108;28;19915;-71
2022/03/29 04:39:25;;;;;;;;;;;;;;;5.50;91.02;101436.78;5102738;28;19922;-72
2022/03/29 04:41:50;;;;;;;;;;;;;;;5.53;94.74;101442.06;5104537;28;20388;-72
2022/03/29 04:44:16;;;;;;;;;;;;;;;5.49;94.70;101434.16;5102854;28;19920;-71
2022/03/29 04:46:41;;;;;;;;;;;;;;;5.47;97.67;101434.06;5105445;28;19919;-71
2022/03/29 04:49:06;;;;;;;;;;;;;;;5.44;98.77;101423.69;5108561;28;19923;-72
2022/03/29 04:51:33;;;;;;;;;;;;;;;5.37;100.00;101426.66;5104094;28;19924;-72
2022/03/29 04:53:58;;;;;;;;;;;;;;;5.35;97.61;101418.94;5107810;28;19985;-72
2022/03/29 04:56:23;;;;;;;;;;;;;;;5.41;96.13;101425.19;5108773;28;20374;-72
2022/03/29 04:58:49;;;;;;;;;;;;;;;5.45;97.32;101427.09;5087877;28;19924;-71
2022/03/29 05:01:14;;;;;;;;;;;;;;;5.45;98.17;101430.53;5105449;28;20358;-72
2022/03/29 05:03:40;;;;;;;;;;;;;;;5.41;100.00;101425.19;5105224;28;20371;-73
2022/03/29 05:06:05;;;;;;;;;;;;;;;5.38;99.57;101415.66;5085815;28;19920;-72
2022/03/29 05:08:30;;;;;;;;;;;;;;;5.39;100.00;101420.84;5106563;28;19919;-73
2022/03/29 05:10:56;;;;;;;;;;;;;;;5.43;99.19;101415.94;5105478;28;19923;-73
2022/03/29 05:13:21;;;;;;;;;;;;;;;5.47;99.91;101413.66;5106261;28;20173;-72
2022/03/29 05:15:47;;;;;;;;;;;;;;;5.47;98.82;101413.66;5102763;28;19964;-72
2022/03/29 05:18:12;;;;;;;;;;;;;;;5.48;100.00;101404.34;5102491;28;20027;-73
2022/03/29 05:20:37;;;;;;;;;;;;;;;5.39;100.00;101389.38;5102126;28;19923;-73
2022/03/29 05:23:06;;;;;;;;;;;;;;;5.35;100.00;101393.44;5106736;28;19919;-73
2022/03/29 05:25:32;;;;;;;;;;;;;;;5.32;100.00;101405.13;5106577;28;20375;-72
2022/03/29 05:27:58;;;;;;;;;;;;;;;5.32;100.00;101408.53;5104197;28;19939;-73
2022/03/29 05:30:23;;;;;;;;;;;;;;;5.39;100.00;101408.09;5107282;28;19919;-72
2022/03/29 05:32:57;;;;;;;;;;;;;;;5.49;100.00;101406.97;5103821;28;20390;-72
2022/03/29 05:35:25;;;;;;;;;;;;;;;5.49;100.00;101399.31;5103754;28;20260;-72
2022/03/29 05:37:51;;;;;;;;;;;;;;;5.44;100.00;101394.75;5104120;28;19962;-72
2022/03/29 05:40:16;;;;;;;;;;;;;;;5.37;100.00;101402.03;5099262;28;19924;-72
2022/03/29 05:42:42;;;;;;;;;;;;;;;5.38;100.00;101402.91;5108869;28;19915;-73
2022/03/29 05:45:08;;;;;;;;;;;;;;;5.41;100.00;101407.34;5105176;28;19924;-72
2022/03/29 05:50:17;;;;;;;;;;;;;;;5.46;100.00;101401.72;5107561;28;19931;-73
2022/03/29 05:52:43;;;;;;;;;;;;;;;5.43;100.00;101403.19;5104099;28;20022;-73
2022/03/29 05:55:10;;;;;;;;;;;;;;;5.45;100.00;101399.03;5103901;28;20396;-72
2022/03/29 05:57:35;;;;;;;;;;;;;;;5.51;100.00;101402.81;5108020;28;19959;-72
2022/03/29 06:00:00;;;;;;;;;;;;;;;5.60;100.00;101398.25;5109670;28;20002;-72
2022/03/29 06:02:26;;;;;;;;;;;;;;;5.59;100.00;101403.28;5111274;28;19924;-72
2022/03/29 06:04:51;;;;;;;;;;;;;;;5.52;100.00;101398.59;5111655;28;19954;-72
2022/03/29 06:07:17;;;;;;;;;;;;;;;5.50;100.00;101401.06;5109876;28;19923;-71
2022/03/29 06:09:43;;;;;;;;;;;;;;;5.50;100.00;101400.19;5110778;28;19935;-73
2022/03/29 06:12:08;;;;;;;;;;;;;;;5.50;100.00;101388.31;5110473;28;19923;-73
2022/03/29 06:14:33;;;;;;;;;;;;;;;5.45;100.00;101404.16;5108105;28;20002;-73
2022/03/29 06:17:00;;;;;;;;;;;;;;;5.44;100.00;101408.38;5111343;28;20387;-72
2022/03/29 06:19:25;;;;;;;;;;;;;;;5.52;100.00;101412.25;5111275;28;19920;-72
2022/03/29 06:21:50;;;;;;;;;;;;;;;5.64;100.00;101409.50;5102907;28;19931;-72
2022/03/29 06:24:16;;;;;;;;;;;;;;;5.73;100.00;101407.47;5110985;28;19924;-71
2022/03/29 06:26:41;;;;;;;;;;;;;;;5.68;100.00;101413.13;5109413;28;19920;-71
2022/03/29 06:29:07;;;;;;;;;;;;;;;5.57;100.00;101413.38;5110848;28;20319;-72
2022/03/29 06:31:32;;;;;;;;;;;;;;;5.56;100.00;101408.19;5106874;28;20006;-73
2022/03/29 06:33:58;;;;;;;;;;;;;;;5.58;100.00;101411.69;5109037;28;19915;-73
2022/03/29 06:36:24;;;;;;;;;;;;;;;5.62;100.00;101406.00;5105823;28;19935;-73
2022/03/29 06:38:49;;;;;;;;;;;;;;;5.66;100.00;101407.94;5112263;28;20366;-73
2022/03/29 06:41:14;;;;;;;;;;;;;;;5.66;100.00;101410.47;5109919;28;19980;-73
2022/03/29 06:43:40;;;;;;;;;;;;;;;5.68;100.00;101416.53;5108177;28;19927;-72
2022/03/29 06:46:08;;;;;;;;;;;;;;;5.59;100.00;101410.94;5107789;27;19930;-73
2022/03/29 06:48:34;;;;;;;;;;;;;;;5.59;100.00;101406.72;5108186;28;19970;-73
2022/03/29 06:50:59;;;;;;;;;;;;;;;5.50;100.00;101406.16;5109511;28;19970;-73
2022/03/29 06:53:24;;;;;;;;;;;;;;;5.49;100.00;101406.09;5107358;28;19920;-72
2022/03/29 06:55:51;;;;;;;;;;;;;;;5.49;100.00;101401.00;5109399;28;19919;-72
2022/03/29 06:58:17;;;;;;;;;;;;;;;5.61;100.00;101399.13;5109660;28;19930;-72
2022/03/29 07:00:42;;;;;;;;;;;;;;;5.78;100.00;101400.09;5108805;28;19916;-72
2022/03/29 07:03:08;;;;;;;;;;;;;;;5.94;100.00;101397.59;5110998;28;20282;-73
2022/03/29 07:05:36;;;;;;;;;;;;;;;5.87;100.00;101410.78;5110142;28;20402;-71
2022/03/29 07:08:01;;;;;;;;;;;;;;;5.77;100.00;101403.44;5106923;28;19922;-72
2022/03/29 07:13:11;;;;;;;;;;;;;;;5.69;100.00;101399.56;5104645;28;19931;-73
2022/03/29 07:15:36;;;;;;;;;;;;;;;5.67;100.00;101403.69;5090363;28;20058;-72
2022/03/29 07:18:01;;;;;;;;;;;;;;;5.70;100.00;101396.19;5106742;28;19919;-72
2022/03/29 07:20:27;;;;;;;;;;;;;;;5.74;100.00;101403.25;5107462;28;20014;-72
2022/03/29 07:22:53;;;;;;;;;;;;;;;5.77;100.00;101399.22;5104943;28;19920;-73
2022/03/29 07:25:19;;;;;;;;;;;;;;;5.75;100.00;101398.22;5106445;28;19916;-73
2022/03/29 07:27:45;;;;;;;;;;;;;;;5.79;100.00;101401.84;5109231;28;21105;-73
2022/03/29 07:30:11;;;;;;;;;;;;;;;5.77;100.00;101411.97;5105007;28;19945;-73
2022/03/29 07:32:43;;;;;;;;;;;;;;;5.72;100.00;101399.75;5107581;28;19931;-74
2022/03/29 07:35:08;;;;;;;;;;;;;;;5.63;100.00;101413.72;5109922;28;19916;-73
2022/03/29 07:37:33;;;;;;;;;;;;;;;5.68;100.00;101408.00;5109342;28;20382;-73
2022/03/29 07:39:59;;;;;;;;;;;;;;;5.74;100.00;101409.22;5110011;28;19920;-73
2022/03/29 07:42:25;;;;;;;;;;;;;;;5.72;100.00;101413.38;5105979;28;19920;-73
2022/03/29 07:44:50;;;;;;;;;;;;;;;5.68;100.00;101419.09;5105428;27;19920;-73
2022/03/29 07:47:17;;;;;;;;;;;;;;;5.75;100.00;101407.56;5109260;28;19912;-73
2022/03/29 07:49:43;;;;;;;;;;;;;;;5.97;100.00;101414.78;5106305;27;20358;-72
2022/03/29 07:52:08;;;;;;;;;;;;;;;6.19;100.00;101404.94;5107208;28;19931;-73
2022/03/29 07:54:33;;;;;;;;;;;;;;;6.30;100.00;101408.06;5107869;28;19915;-73
2022/03/29 07:56:59;;;;;;;;;;;;;;;6.27;100.00;101413.91;5109029;28;20374;-74
2022/03/29 07:59:24;;;;;;;;;;;;;;;6.22;100.00;101405.09;5104718;28;19924;-73
2022/03/29 08:01:50;;;;;;;;;;;;;;;6.28;100.00;101407.09;5105827;28;19920;-74
2022/03/29 08:04:15;;;;;;;;;;;;;;;6.32;100.00;101406.50;5098447;28;19916;-72
2022/03/29 08:06:41;;;;;;;;;;;;;;;6.35;100.00;101406.63;5104927;28;19920;-72
2022/03/29 08:09:06;;;;;;;;;;;;;;;6.37;100.00;101407.59;5105273;28;19923;-72
2022/03/29 08:11:34;;;;;;;;;;;;;;;6.43;100.00;101413.03;5106813;28;20009;-72
2022/03/29 08:13:59;;;;;;;;;;;;;;;6.57;100.00;101403.56;5108380;28;20006;-71
2022/03/29 08:16:24;;;;;;;;;;;;;;;6.55;100.00;101415.34;5108418;28;20010;-74
2022/03/29 08:18:50;;;;;;;;;;;;;;;6.47;100.00;101411.53;5109174;28;19920;-73
2022/03/29 08:24:00;;;;;;;;;;;;;;;6.50;100.00;101406.59;5105809;28;21080;-72
2022/03/29 08:26:25;;;;;;;;;;;;;;;6.44;100.00;101400.34;5106808;28;19916;-71
2022/03/29 08:28:51;;;;;;;;;;;;;;;6.45;100.00;101402.09;5101587;28;19923;-72
2022/03/29 08:31:17;;;;;;;;;;;;;;;6.45;100.00;101402.09;5107127;28;20429;-72
2022/03/29 08:33:43;;;;;;;;;;;;;;;6.45;100.00;101394.44;5105076;28;19955;-73
2022/03/29 08:36:08;;;;;;;;;;;;;;;6.51;100.00;101400.69;5105404;28;20358;-73
2022/03/29 08:38:33;;;;;;;;;;;;;;;6.50;100.00;101402.34;5099593;28;19920;-72
2022/03/29 08:40:59;;;;;;;;;;;;;;;6.54;100.00;101403.38;5106132;28;19926;-72
2022/03/29 08:43:27;;;;;;;;;;;;;;;6.63;100.00;101398.78;5102887;28;19920;-72
2022/03/29 08:45:53;;;;;;;;;;;;;;;6.67;100.00;101404.13;5105522;28;20011;-73
2022/03/29 08:48:21;;;;;;;;;;;;;;;6.60;100.00;101404.59;5098653;28;20011;-73
2022/03/29 08:50:47;;;;;;;;;;;;;;;6.59;100.00;101401.94;5098980;28;19927;-73
2022/03/29 08:53:13;;;;;;;;;;;;;;;6.67;100.00;101403.22;5103927;28;19928;-73
2022/03/29 08:55:42;;;;;;;;;;;;;;;6.84;99.98;101402.44;5103462;28;20011;-71
2022/03/29 08:58:08;;;;;;;;;;;;;;;6.95;99.33;101403.84;5107036;28;20329;-72
2022/03/29 09:00:55;;;;;;;;;;;;;;;7.04;98.17;101395.78;5107568;28;20408;-75
2022/03/29 09:03:21;;;;;;;;;;;;;;;7.07;98.37;101395.94;5100725;28;20370;-74
2022/03/29 09:05:48;;;;;;;;;;;;;;;7.26;97.60;101395.16;5100462;28;19920;-73
2022/03/29 09:08:14;;;;;;;;;;;;;;;7.29;96.69;101397.03;5096765;28;19997;-72
2022/03/29 09:10:43;;;;;;;;;;;;;;;7.34;96.25;101390.44;5104076;28;20514;-74
2022/03/29 09:13:21;;;;;;;;;;;;;;;7.32;96.35;101394.59;5106737;28;19924;-74
2022/03/29 09:15:47;;;;;;;;;;;;;;;7.29;96.38;101400.47;5102418;28;19912;-73
2022/03/29 09:18:12;;;;;;;;;;;;;;;7.20;96.25;101392.31;5102715;28;19945;-74
2022/03/29 09:20:37;;;;;;;;;;;;;;;7.09;97.28;101391.75;5105343;28;19923;-74
2022/03/29 09:23:04;;;;;;;;;;;;;;;7.07;97.74;101402.72;5105631;28;19998;-74
2022/03/29 09:25:36;;;;;;;;;;;;;;;7.10;97.83;101392.63;5105068;28;19923;-74
2022/03/29 09:28:03;;;;;;;;;;;;;;;7.16;97.00;101398.06;5106724;28;19926;-73
2022/03/29 09:30:38;;;;;;;;;;;;;;;7.17;97.15;101399.84;5103851;28;19922;-75
2022/03/29 09:33:07;;;;;;;;;;;;;;;7.07;97.74;101393.38;5102323;28;19952;-74
2022/03/29 09:35:33;;;;;;;;;;;;;;;7.11;97.75;101396.97;5108166;28;19923;-74
2022/03/29 09:38:01;;;;;;;;;;;;;;;7.17;97.73;101392.16;5105607;28;19912;-73
2022/03/29 09:40:38;;;;;;;;;;;;;;;7.23;97.53;101392.47;5109546;28;19943;-74
2022/03/29 09:43:06;;;;;;;;;;;;;;;7.38;96.89;101394.91;5108643;28;19912;-73
2022/03/29 09:45:41;;;;;;;;;;;;;;;7.63;96.22;101402.09;5115468;28;20010;-74
2022/03/29 09:48:24;;;;;;;;;;;;;;;7.78;94.62;101383.25;5119718;28;20321;-74
2022/03/29 09:51:10;;;;;;;;;;;;;;;7.70;94.07;101387.09;5120191;28;19916;-73
2022/03/29 09:53:40;;;;;;;;;;;;;;;7.57;94.90;101381.31;5112860;28;19920;-75
2022/03/29 09:56:06;;;;;;;;;;;;;;;7.53;95.10;101380.31;5110365;28;19960;-73
2022/03/29 09:58:32;;;;;;;;;;;;;;;7.48;95.50;101377.53;5110692;28;19926;-74
2022/03/29 10:00:57;;;;;;;;;;;;;;;7.47;95.14;101373.22;5111254;28;20010;-73
2022/03/29 10:03:26;;;;;;;;;;;;;;;7.43;95.49;101367.88;5107152;28;19924;-74
2022/03/29 10:05:53;;;;;;;;;;;;;;;7.40;96.03;101360.94;5106263;28;19964;-74
2022/03/29 10:11:11;;;;;;;;;;;;;;;7.59;95.76;101355.00;5106272;28;19985;-73
2022/03/29 10:13:37;;;;;;;;;;;;;;;7.70;94.60;101352.94;5107060;28;19984;-73
2022/03/29 10:16:03;;;;;;;;;;;;;;;7.71;94.32;101344.50;5107318;28;19972;-73
2022/03/29 10:18:28;;;;;;;;;;;;;;;7.70;94.44;101353.81;5101019;28;19920;-73
2022/03/29 10:20:55;;;;;;;;;;;;;;;7.71;94.89;101341.94;5106233;27;19927;-72
2022/03/29 10:23:23;;;;;;;;;;;;;;;7.84;94.45;101344.25;5102625;28;19928;-72
2022/03/29 10:25:50;;;;;;;;;;;;;;;7.94;93.48;101350.66;5107069;28;19988;-73
2022/03/29 10:28:16;;;;;;;;;;;;;;;7.91;92.93;101355.66;5106403;28;19920;-73
2022/03/29 10:30:42;;;;;;;;;;;;;;;7.78;93.80;101347.41;5105617;28;19961;-74
2022/03/29 10:33:24;;;;;;;;;;;;;;;7.73;93.85;101337.75;5108741;28;20370;-73
2022/03/29 10:36:02;;;;;;;;;;;;;;;7.71;94.32;101339.38;5110236;28;19924;-73
2022/03/29 10:38:46;;;;;;;;;;;;;;;7.77;94.66;101348.22;5107453;28;19974;-73
2022/03/29 10:41:29;;;;;;;;;;;;;;;7.91;93.90;101353.09;5107194;28;20015;-73
2022/03/29 10:43:56;;;;;;;;;;;;;;;8.04;94.07;101335.78;5106824;28;19924;-73
2022/03/29 10:46:22;;;;;;;;;;;;;;;8.42;92.12;101344.34;5104717;28;19920;-74
2022/03/29 10:49:06;;;;;;;;;;;;;;;8.63;89.86;101328.19;5106944;28;19927;-74
2022/03/29 10:51:31;;;;;;;;;;;;;;;8.93;88.74;101332.03;5105212;28;19923;-73
2022/03/29 10:54:16;;;;;;;;;;;;;;;9.05;88.06;101340.25;5106106;28;20083;-74
2022/03/29 10:56:55;;;;;;;;;;;;;;;9.19;85.82;101335.69;5103673;28;19923;-74
2022/03/29 10:59:20;;;;;;;;;;;;;;;9.09;87.43;101334.41;5107748;28;19919;-74
2022/03/29 11:02:05;;;;;;;;;;;;;;;9.29;85.68;101335.25;5104224;28;19931;-74
2022/03/29 11:04:30;;;;;;;;;;;;;;;9.24;85.43;101323.06;5104565;28;19916;-74
2022/03/29 11:07:05;;;;;;;;;;;;;;;9.07;86.95;101323.22;5102648;28;19928;-74
2022/03/29 11:09:30;;;;;;;;;;;;;;;9.34;85.51;101302.97;5105643;28;19966;-74
2022/03/29 11:11:56;;;;;;;;;;;;;;;9.56;84.41;101304.66;5105344;28;20508;-76
2022/03/29 11:14:27;;;;;;;;;;;;;;;9.44;83.19;101301.63;5104954;28;20405;-73
2022/03/29 11:16:52;;;;;;;;;;;;;;;9.35;84.17;101303.84;5107187;28;19922;-74
2022/03/29 11:19:36;;;;;;;;;;;;;;;9.41;83.46;101304.06;5103522;28;20046;-74
2022/03/29 11:22:21;;;;;;;;;;;;;;;9.33;83.87;101300.31;5100683;28;21211;-75
2022/03/29 11:24:48;;;;;;;;;;;;;;;9.60;84.58;101286.00;5108124;28;20266;-75
2022/03/29 11:27:19;;;;;;;;;;;;;;;10.30;80.71;101292.03;5107506;28;19916;-75
2022/03/29 11:29:45;;;;;;;;;;;;;;;10.95;77.87;101296.91;5104537;27;19922;-75
2022/03/29 11:32:14;;;;;;;;;;;;;;;11.13;74.57;101276.03;5105325;28;19919;-75
2022/03/29 11:34:40;;;;;;;;;;;;;;;10.95;74.78;101280.59;5100169;27;19916;-75
2022/03/29 11:37:06;;;;;;;;;;;;;;;11.03;76.33;101268.84;5107283;28;20290;-76
2022/03/29 11:39:31;;;;;;;;;;;;;;;11.92;77.08;101271.63;5107318;28;20434;-75
2022/03/29 11:41:57;;;;;;;;;;;;;;;13.00;74.20;101259.06;5106961;28;20032;-74
2022/03/29 11:44:23;;;;;;;;;;;;;;;13.86;70.96;101259.31;5105162;28;20267;-75
2022/03/29 11:46:54;;;;;;;;;;;;;;;14.92;65.36;101258.72;5107065;28;20385;-74
2022/03/29 11:49:21;;;;;;;;;;;;;;;15.84;57.87;101249.75;5110036;28;19915;-77
2022/03/29 11:52:05;;;;;;;;;;;;;;;15.82;55.22;101252.31;5103645;28;20036;-75
2022/03/29 11:54:30;;;;;;;;;;;;;;;14.91;56.30;101251.81;5104288;28;20382;-75
2022/03/29 11:56:55;;;;;;;;;;;;;;;14.17;59.36;101244.41;5105504;28;20053;-76
2022/03/29 11:59:20;;;;;;;;;;;;;;;14.10;60.71;101243.44;5107625;28;19939;-75
2022/03/29 12:01:46;;;;;;;;;;;;;;;14.42;60.36;101245.75;5104507;28;19916;-75
2022/03/29 12:04:11;;;;;;;;;;;;;;;14.72;58.90;101241.16;5104049;28;20057;-76
2022/03/29 12:06:47;;;;;;;;;;;;;;;14.57;58.94;101234.84;5107111;28;19964;-76
2022/03/29 12:09:16;;;;;;;;;;;;;;;14.68;62.52;101228.13;5100361;28;19931;-74
2022/03/29 12:11:44;;;;;;;;;;;;;;;14.71;56.45;101233.38;5103977;28;20033;-75
2022/03/29 12:14:10;;;;;;;;;;;;;;;14.25;56.62;101232.50;5102147;28;20356;-76
2022/03/29 12:16:46;;;;;;;;;;;;;;;13.76;57.85;101216.00;5105760;28;19916;-76
2022/03/29 12:19:12;;;;;;;;;;;;;;;13.59;58.34;101222.53;5102936;28;20007;-74
2022/03/29 12:21:38;;;;;;;;;;;;;;;13.39;60.92;101215.22;5105345;28;20463;-76
2022/03/29 12:24:07;;;;;;;;;;;;;;;13.74;60.95;101209.94;5098927;28;19920;-75
2022/03/29 12:26:33;;;;;;;;;;;;;;;14.14;60.30;101216.78;5100318;28;19930;-74
2022/03/29 12:28:59;;;;;;;;;;;;;;;14.43;56.66;101203.50;5105035;28;20247;-75
2022/03/29 12:31:27;;;;;;;;;;;;;;;14.11;55.33;101203.78;5102280;28;19919;-75
2022/03/29 12:33:53;;;;;;;;;;;;;;;14.24;57.02;101202.31;5103126;28;19924;-74
2022/03/29 12:36:19;;;;;;;;;;;;;;;15.29;56.13;101191.13;5107375;28;20374;-75
2022/03/29 12:38:47;;;;;;;;;;;;;;;16.27;51.95;101187.13;5106830;28;19915;-74
2022/03/29 12:41:13;;;;;;;;;;;;;;;17.21;52.62;101177.50;5104515;28;19938;-75
2022/03/29 12:43:39;;;;;;;;;;;;;;;17.84;48.23;101178.72;5107287;28;20014;-74
2022/03/29 12:46:07;;;;;;;;;;;;;;;18.88;49.45;101158.88;5102630;28;19924;-75
2022/03/29 12:48:32;;;;;;;;;;;;;;;20.00;48.56;101151.53;5113039;28;19916;-75
2022/03/29 12:51:04;;;;;;;;;;;;;;;20.97;42.94;101146.41;5107124;28;19946;-76
2022/03/29 12:53:29;;;;;;;;;;;;;;;21.49;38.03;101150.22;5103695;28;20026;-75